sensor_id;sensor_type;location;lat;lon;timestamp;temperature;humidity
10572;DHT22;5334;48.928;12.704;2023-03-23T00:03:45;10.90;99.90
10572;DHT22;5334;48.928;12.704;2023-03-23T00:06:11;10.90;99.90
10572;DHT22;5334;48.928;12.704;2023-03-23T00:08:43;10.90;99.90
10572;DHT22;5334;48.928;12.704;2023-03-23T00:11:17;10.90;99.90
10572;DHT22;5334;48.928;12.704;2023-03-23T00:13:45;10.90;99.90
10572;DHT22;5334;48.928;12.704;2023-03-23T00:16:17;10.90;99.90
10572;DHT22;5334;48.928;12.704;2023-03-23T00:18:47;10.90;99.90
10572;DHT22;5334;48.928;12.704;2023-03-23T00:21:18;11.00;99.90
10572;DHT22;5334;48.928;12.704;2023-03-23T00:23:45;10.90;99.90
10572;DHT22;5334;48.928;12.704;2023-03-23T00:28:38;10.80;99.90
10572;DHT22;5334;48.928;12.704;2023-03-23T00:33:35;10.60;99.90
10572;DHT22;5334;48.928;12.704;2023-03-23T00:36:07;10.60;99.90
10572;DHT22;5334;48.928;12.704;2023-03-23T00:38:35;10.50;99.90
10572;DHT22;5334;48.928;12.704;2023-03-23T00:41:01;10.50;99.90
10572;DHT22;5334;48.928;12.704;2023-03-23T00:43:28;10.50;99.90
10572;DHT22;5334;48.928;12.704;2023-03-23T00:45:55;10.40;99.90
10572;DHT22;5334;48.928;12.704;2023-03-23T00:48:22;10.40;99.90
10572;DHT22;5334;48.928;12.704;2023-03-23T00:50:48;10.40;99.90
10572;DHT22;5334;48.928;12.704;2023-03-23T00:53:15;10.40;99.90
10572;DHT22;5334;48.928;12.704;2023-03-23T00:55:42;10.30;99.90
10572;DHT22;5334;48.928;12.704;2023-03-23T00:58:08;10.30;99.90
10572;DHT22;5334;48.928;12.704;2023-03-23T01:00:35;10.30;99.90
10572;DHT22;5334;48.928;12.704;2023-03-23T01:03:01;10.30;99.90
10572;DHT22;5334;48.928;12.704;2023-03-23T01:05:26;10.30;99.90
10572;DHT22;5334;48.928;12.704;2023-03-23T01:07:58;10.30;99.90
10572;DHT22;5334;48.928;12.704;2023-03-23T01:10:24;10.30;99.90
10572;DHT22;5334;48.928;12.704;2023-03-23T01:12:52;10.30;99.90
10572;DHT22;5334;48.928;12.704;2023-03-23T01:15:21;10.30;99.90
10572;DHT22;5334;48.928;12.704;2023-03-23T01:17:47;10.30;99.90
10572;DHT22;5334;48.928;12.704;2023-03-23T01:20:15;10.30;99.90
10572;DHT22;5334;48.928;12.704;2023-03-23T01:22:42;10.30;99.90
10572;DHT22;5334;48.928;12.704;2023-03-23T01:25:09;10.20;99.90
10572;DHT22;5334;48.928;12.704;2023-03-23T01:27:36;10.20;99.90
10572;DHT22;5334;48.928;12.704;2023-03-23T01:30:02;10.10;99.90
10572;DHT22;5334;48.928;12.704;2023-03-23T01:32:29;10.00;99.90
10572;DHT22;5334;48.928;12.704;2023-03-23T01:34:55;10.00;99.90
10572;DHT22;5334;48.928;12.704;2023-03-23T01:37:20;10.00;99.90
10572;DHT22;5334;48.928;12.704;2023-03-23T01:39:52;10.00;99.90
10572;DHT22;5334;48.928;12.704;2023-03-23T01:42:21;10.00;99.90
10572;DHT22;5334;48.928;12.704;2023-03-23T01:47:12;9.90;99.90
10572;DHT22;5334;48.928;12.704;2023-03-23T01:49:42;9.90;99.90
10572;DHT22;5334;48.928;12.704;2023-03-23T01:54:43;9.80;99.90
10572;DHT22;5334;48.928;12.704;2023-03-23T01:57:15;9.70;99.90
10572;DHT22;5334;48.928;12.704;2023-03-23T01:59:44;9.60;99.90
10572;DHT22;5334;48.928;12.704;2023-03-23T02:02:12;9.50;99.90
10572;DHT22;5334;48.928;12.704;2023-03-23T02:04:38;9.40;99.90
10572;DHT22;5334;48.928;12.704;2023-03-23T02:07:04;9.30;99.90
10572;DHT22;5334;48.928;12.704;2023-03-23T02:09:30;9.30;99.90
10572;DHT22;5334;48.928;12.704;2023-03-23T02:11:56;9.20;99.90
10572;DHT22;5334;48.928;12.704;2023-03-23T02:14:25;9.20;99.90
10572;DHT22;5334;48.928;12.704;2023-03-23T02:28:09;9.30;99.90
10572;DHT22;5334;48.928;12.704;2023-03-23T02:39:05;9.40;99.90
10572;DHT22;5334;48.928;12.704;2023-03-23T02:41:39;9.50;99.90
10572;DHT22;5334;48.928;12.704;2023-03-23T02:44:08;9.50;99.90
10572;DHT22;5334;48.928;12.704;2023-03-23T02:46:36;9.50;99.90
10572;DHT22;5334;48.928;12.704;2023-03-23T02:49:03;9.60;99.90
10572;DHT22;5334;48.928;12.704;2023-03-23T02:51:33;9.50;99.90
10572;DHT22;5334;48.928;12.704;2023-03-23T02:54:00;9.50;99.90
10572;DHT22;5334;48.928;12.704;2023-03-23T02:56:27;9.50;99.90
10572;DHT22;5334;48.928;12.704;2023-03-23T02:58:54;9.50;99.90
10572;DHT22;5334;48.928;12.704;2023-03-23T03:03:54;9.50;99.90
10572;DHT22;5334;48.928;12.704;2023-03-23T03:06:49;9.50;99.90
10572;DHT22;5334;48.928;12.704;2023-03-23T03:12:04;9.60;99.90
10572;DHT22;5334;48.928;12.704;2023-03-23T03:14:38;9.60;99.90
10572;DHT22;5334;48.928;12.704;2023-03-23T03:17:13;9.60;99.90
10572;DHT22;5334;48.928;12.704;2023-03-23T03:19:46;9.50;99.90
10572;DHT22;5334;48.928;12.704;2023-03-23T03:22:13;9.50;99.90
10572;DHT22;5334;48.928;12.704;2023-03-23T03:24:40;9.50;99.90
10572;DHT22;5334;48.928;12.704;2023-03-23T03:27:12;9.50;99.90
10572;DHT22;5334;48.928;12.704;2023-03-23T03:29:41;9.50;99.90
10572;DHT22;5334;48.928;12.704;2023-03-23T03:34:35;9.50;99.90
10572;DHT22;5334;48.928;12.704;2023-03-23T03:37:01;9.50;99.90
10572;DHT22;5334;48.928;12.704;2023-03-23T03:39:30;9.40;99.90
10572;DHT22;5334;48.928;12.704;2023-03-23T03:41:55;9.40;99.90
10572;DHT22;5334;48.928;12.704;2023-03-23T03:44:21;9.40;99.90
10572;DHT22;5334;48.928;12.704;2023-03-23T03:46:47;9.40;99.90
10572;DHT22;5334;48.928;12.704;2023-03-23T03:49:13;9.30;99.90
10572;DHT22;5334;48.928;12.704;2023-03-23T03:51:39;9.30;99.90
10572;DHT22;5334;48.928;12.704;2023-03-23T03:54:06;9.30;99.90
10572;DHT22;5334;48.928;12.704;2023-03-23T03:56:31;9.30;99.90
10572;DHT22;5334;48.928;12.704;2023-03-23T03:59:00;9.30;99.90
10572;DHT22;5334;48.928;12.704;2023-03-23T04:01:26;9.30;99.90
10572;DHT22;5334;48.928;12.704;2023-03-23T04:03:51;9.20;99.90
10572;DHT22;5334;48.928;12.704;2023-03-23T04:06:18;9.20;99.90
10572;DHT22;5334;48.928;12.704;2023-03-23T04:08:44;9.20;99.90
10572;DHT22;5334;48.928;12.704;2023-03-23T04:11:13;9.20;99.90
10572;DHT22;5334;48.928;12.704;2023-03-23T04:13:39;9.20;99.90
10572;DHT22;5334;48.928;12.704;2023-03-23T04:16:06;9.30;99.90
10572;DHT22;5334;48.928;12.704;2023-03-23T04:18:33;9.30;99.90
10572;DHT22;5334;48.928;12.704;2023-03-23T04:21:00;9.30;99.90
10572;DHT22;5334;48.928;12.704;2023-03-23T04:23:27;9.30;99.90
10572;DHT22;5334;48.928;12.704;2023-03-23T04:25:56;9.30;99.90
10572;DHT22;5334;48.928;12.704;2023-03-23T04:28:24;9.30;99.90
10572;DHT22;5334;48.928;12.704;2023-03-23T04:30:54;9.30;99.90
10572;DHT22;5334;48.928;12.704;2023-03-23T04:33:21;9.30;99.90
10572;DHT22;5334;48.928;12.704;2023-03-23T04:35:51;9.40;99.90
10572;DHT22;5334;48.928;12.704;2023-03-23T04:40:47;9.40;99.90
10572;DHT22;5334;48.928;12.704;2023-03-23T04:43:13;9.40;99.90
10572;DHT22;5334;48.928;12.704;2023-03-23T04:45:40;9.40;99.90
10572;DHT22;5334;48.928;12.704;2023-03-23T04:48:10;9.40;99.90
10572;DHT22;5334;48.928;12.704;2023-03-23T04:50:36;9.10;99.90
10572;DHT22;5334;48.928;12.704;2023-03-23T04:53:04;9.00;99.90
10572;DHT22;5334;48.928;12.704;2023-03-23T04:55:31;9.00;99.90
10572;DHT22;5334;48.928;12.704;2023-03-23T04:57:57;9.00;99.90
10572;DHT22;5334;48.928;12.704;2023-03-23T05:00:26;8.90;99.90
10572;DHT22;5334;48.928;12.704;2023-03-23T05:02:52;8.90;99.90
10572;DHT22;5334;48.928;12.704;2023-03-23T05:05:21;8.80;99.90
10572;DHT22;5334;48.928;12.704;2023-03-23T05:07:47;8.90;99.90
10572;DHT22;5334;48.928;12.704;2023-03-23T05:10:14;8.90;99.90
10572;DHT22;5334;48.928;12.704;2023-03-23T05:12:41;9.00;99.90
10572;DHT22;5334;48.928;12.704;2023-03-23T05:15:08;9.00;99.90
10572;DHT22;5334;48.928;12.704;2023-03-23T05:17:34;9.10;99.90
10572;DHT22;5334;48.928;12.704;2023-03-23T05:20:02;9.10;99.90
10572;DHT22;5334;48.928;12.704;2023-03-23T05:22:35;9.20;99.90
10572;DHT22;5334;48.928;12.704;2023-03-23T05:25:02;9.20;99.90
10572;DHT22;5334;48.928;12.704;2023-03-23T05:27:28;9.20;99.90
10572;DHT22;5334;48.928;12.704;2023-03-23T05:29:58;9.20;99.90
10572;DHT22;5334;48.928;12.704;2023-03-23T05:35:01;9.30;99.90
10572;DHT22;5334;48.928;12.704;2023-03-23T05:37:28;9.30;99.90
10572;DHT22;5334;48.928;12.704;2023-03-23T05:42:26;9.30;99.90
10572;DHT22;5334;48.928;12.704;2023-03-23T05:44:53;9.30;99.90
10572;DHT22;5334;48.928;12.704;2023-03-23T05:47:19;9.30;99.90
10572;DHT22;5334;48.928;12.704;2023-03-23T05:49:44;9.30;99.90
10572;DHT22;5334;48.928;12.704;2023-03-23T05:52:10;9.30;99.90
10572;DHT22;5334;48.928;12.704;2023-03-23T05:54:36;9.30;99.90
10572;DHT22;5334;48.928;12.704;2023-03-23T05:57:03;9.30;99.90
10572;DHT22;5334;48.928;12.704;2023-03-23T05:59:29;9.40;99.90
10572;DHT22;5334;48.928;12.704;2023-03-23T06:01:54;9.50;99.90
10572;DHT22;5334;48.928;12.704;2023-03-23T06:04:20;9.40;99.90
10572;DHT22;5334;48.928;12.704;2023-03-23T06:06:50;9.40;99.90
10572;DHT22;5334;48.928;12.704;2023-03-23T06:09:17;9.40;99.90
10572;DHT22;5334;48.928;12.704;2023-03-23T06:11:43;9.40;99.90
10572;DHT22;5334;48.928;12.704;2023-03-23T06:14:09;9.40;99.90
10572;DHT22;5334;48.928;12.704;2023-03-23T06:16:35;9.50;99.90
10572;DHT22;5334;48.928;12.704;2023-03-23T06:19:01;9.40;99.90
10572;DHT22;5334;48.928;12.704;2023-03-23T06:21:27;9.40;99.90
10572;DHT22;5334;48.928;12.704;2023-03-23T06:23:54;9.40;99.90
10572;DHT22;5334;48.928;12.704;2023-03-23T06:26:25;9.30;99.90
10572;DHT22;5334;48.928;12.704;2023-03-23T06:28:51;9.30;99.90
10572;DHT22;5334;48.928;12.704;2023-03-23T06:31:16;9.30;99.90
10572;DHT22;5334;48.928;12.704;2023-03-23T06:33:45;9.30;99.90
10572;DHT22;5334;48.928;12.704;2023-03-23T06:36:10;9.40;99.90
10572;DHT22;5334;48.928;12.704;2023-03-23T06:38:37;9.40;99.90
10572;DHT22;5334;48.928;12.704;2023-03-23T06:41:03;9.40;99.90
10572;DHT22;5334;48.928;12.704;2023-03-23T06:43:30;9.30;99.90
10572;DHT22;5334;48.928;12.704;2023-03-23T06:45:59;9.30;99.90
10572;DHT22;5334;48.928;12.704;2023-03-23T06:48:25;9.40;99.90
10572;DHT22;5334;48.928;12.704;2023-03-23T06:50:50;9.40;99.90
10572;DHT22;5334;48.928;12.704;2023-03-23T06:53:16;9.50;99.90
10572;DHT22;5334;48.928;12.704;2023-03-23T06:55:43;9.50;99.90
10572;DHT22;5334;48.928;12.704;2023-03-23T06:58:09;9.60;99.90
10572;DHT22;5334;48.928;12.704;2023-03-23T07:00:35;9.60;99.90
10572;DHT22;5334;48.928;12.704;2023-03-23T07:03:01;9.70;99.90
10572;DHT22;5334;48.928;12.704;2023-03-23T07:05:27;9.70;99.90
10572;DHT22;5334;48.928;12.704;2023-03-23T07:07:53;9.90;99.90
10572;DHT22;5334;48.928;12.704;2023-03-23T07:10:19;9.90;99.90
10572;DHT22;5334;48.928;12.704;2023-03-23T07:12:45;10.10;99.90
10572;DHT22;5334;48.928;12.704;2023-03-23T07:15:11;10.20;99.90
10572;DHT22;5334;48.928;12.704;2023-03-23T07:17:38;10.40;99.90
10572;DHT22;5334;48.928;12.704;2023-03-23T07:20:05;10.40;99.90
10572;DHT22;5334;48.928;12.704;2023-03-23T07:22:31;10.60;99.90
10572;DHT22;5334;48.928;12.704;2023-03-23T07:24:57;10.70;99.90
10572;DHT22;5334;48.928;12.704;2023-03-23T07:27:23;11.00;99.90
10572;DHT22;5334;48.928;12.704;2023-03-23T07:29:48;11.30;99.90
10572;DHT22;5334;48.928;12.704;2023-03-23T07:32:14;11.60;99.90
10572;DHT22;5334;48.928;12.704;2023-03-23T07:34:40;11.70;99.90
10572;DHT22;5334;48.928;12.704;2023-03-23T07:37:07;11.60;99.90
10572;DHT22;5334;48.928;12.704;2023-03-23T07:39:32;11.60;99.90
10572;DHT22;5334;48.928;12.704;2023-03-23T07:41:58;11.60;99.90
10572;DHT22;5334;48.928;12.704;2023-03-23T07:44:24;11.50;99.90
10572;DHT22;5334;48.928;12.704;2023-03-23T07:46:50;11.50;99.90
10572;DHT22;5334;48.928;12.704;2023-03-23T07:49:16;11.40;99.90
10572;DHT22;5334;48.928;12.704;2023-03-23T07:51:43;11.40;99.90
10572;DHT22;5334;48.928;12.704;2023-03-23T07:54:08;11.40;99.90
10572;DHT22;5334;48.928;12.704;2023-03-23T07:56:35;11.30;99.90
10572;DHT22;5334;48.928;12.704;2023-03-23T07:59:02;11.40;99.90
10572;DHT22;5334;48.928;12.704;2023-03-23T08:01:28;11.50;99.90
10572;DHT22;5334;48.928;12.704;2023-03-23T08:03:54;11.50;99.90
10572;DHT22;5334;48.928;12.704;2023-03-23T08:06:23;11.60;99.90
10572;DHT22;5334;48.928;12.704;2023-03-23T08:08:48;11.70;99.90
10572;DHT22;5334;48.928;12.704;2023-03-23T08:11:15;11.80;99.90
10572;DHT22;5334;48.928;12.704;2023-03-23T08:13:42;11.80;99.90
10572;DHT22;5334;48.928;12.704;2023-03-23T08:16:09;11.90;99.90
10572;DHT22;5334;48.928;12.704;2023-03-23T08:18:36;12.00;99.90
10572;DHT22;5334;48.928;12.704;2023-03-23T08:21:03;12.10;99.90
10572;DHT22;5334;48.928;12.704;2023-03-23T08:23:35;12.10;99.90
10572;DHT22;5334;48.928;12.704;2023-03-23T08:26:05;12.10;99.90
10572;DHT22;5334;48.928;12.704;2023-03-23T08:28:35;12.10;99.90
10572;DHT22;5334;48.928;12.704;2023-03-23T08:31:13;12.20;99.90
10572;DHT22;5334;48.928;12.704;2023-03-23T08:33:39;12.20;99.90
10572;DHT22;5334;48.928;12.704;2023-03-23T08:36:06;12.20;99.90
10572;DHT22;5334;48.928;12.704;2023-03-23T08:38:33;12.30;99.90
10572;DHT22;5334;48.928;12.704;2023-03-23T08:41:04;12.30;99.90
10572;DHT22;5334;48.928;12.704;2023-03-23T08:43:32;12.40;99.90
10572;DHT22;5334;48.928;12.704;2023-03-23T08:45:58;12.30;99.90
10572;DHT22;5334;48.928;12.704;2023-03-23T08:48:24;12.40;99.90
10572;DHT22;5334;48.928;12.704;2023-03-23T08:50:50;12.40;99.90
10572;DHT22;5334;48.928;12.704;2023-03-23T08:53:18;12.50;99.90
10572;DHT22;5334;48.928;12.704;2023-03-23T08:55:44;12.50;99.90
10572;DHT22;5334;48.928;12.704;2023-03-23T08:58:10;12.50;99.90
10572;DHT22;5334;48.928;12.704;2023-03-23T09:00:36;12.60;99.90
10572;DHT22;5334;48.928;12.704;2023-03-23T09:03:01;12.70;99.90
10572;DHT22;5334;48.928;12.704;2023-03-23T09:05:28;12.80;99.90
10572;DHT22;5334;48.928;12.704;2023-03-23T09:07:56;12.90;99.90
10572;DHT22;5334;48.928;12.704;2023-03-23T09:10:27;13.00;99.90
10572;DHT22;5334;48.928;12.704;2023-03-23T09:12:54;13.00;99.90
10572;DHT22;5334;48.928;12.704;2023-03-23T09:15:20;13.20;99.90
10572;DHT22;5334;48.928;12.704;2023-03-23T09:17:48;13.30;99.90
10572;DHT22;5334;48.928;12.704;2023-03-23T09:20:17;13.30;99.90
10572;DHT22;5334;48.928;12.704;2023-03-23T09:22:47;13.50;99.90
10572;DHT22;5334;48.928;12.704;2023-03-23T09:25:15;13.70;99.90
10572;DHT22;5334;48.928;12.704;2023-03-23T09:27:42;14.00;99.90
10572;DHT22;5334;48.928;12.704;2023-03-23T09:30:11;14.10;99.90
10572;DHT22;5334;48.928;12.704;2023-03-23T09:32:38;14.30;99.90
10572;DHT22;5334;48.928;12.704;2023-03-23T09:35:06;14.60;99.90
10572;DHT22;5334;48.928;12.704;2023-03-23T09:37:38;15.00;99.90
10572;DHT22;5334;48.928;12.704;2023-03-23T09:40:06;15.20;99.90
10572;DHT22;5334;48.928;12.704;2023-03-23T09:42:44;15.30;99.90
10572;DHT22;5334;48.928;12.704;2023-03-23T09:48:38;15.10;99.90
10572;DHT22;5334;48.928;12.704;2023-03-23T09:54:00;15.00;99.90
10572;DHT22;5334;48.928;12.704;2023-03-23T09:56:29;15.00;99.90
10572;DHT22;5334;48.928;12.704;2023-03-23T09:59:16;15.00;99.90
10572;DHT22;5334;48.928;12.704;2023-03-23T10:01:52;15.10;99.90
10572;DHT22;5334;48.928;12.704;2023-03-23T10:07:17;15.20;99.90
10572;DHT22;5334;48.928;12.704;2023-03-23T10:09:46;15.30;99.90
10572;DHT22;5334;48.928;12.704;2023-03-23T10:12:51;15.50;99.90
10572;DHT22;5334;48.928;12.704;2023-03-23T10:15:21;15.60;99.90
10572;DHT22;5334;48.928;12.704;2023-03-23T10:18:01;15.60;99.90
10572;DHT22;5334;48.928;12.704;2023-03-23T10:23:05;15.80;99.90
10572;DHT22;5334;48.928;12.704;2023-03-23T10:25:37;15.80;99.90
10572;DHT22;5334;48.928;12.704;2023-03-23T10:28:17;15.70;99.90
10572;DHT22;5334;48.928;12.704;2023-03-23T10:30:48;15.80;99.90
10572;DHT22;5334;48.928;12.704;2023-03-23T10:33:33;15.80;99.90
10572;DHT22;5334;48.928;12.704;2023-03-23T10:38:48;15.80;99.90
10572;DHT22;5334;48.928;12.704;2023-03-23T10:41:19;15.90;99.90
10572;DHT22;5334;48.928;12.704;2023-03-23T10:43:46;15.90;99.90
10572;DHT22;5334;48.928;12.704;2023-03-23T10:49:01;15.90;99.90
10572;DHT22;5334;48.928;12.704;2023-03-23T10:51:33;15.90;99.90
10572;DHT22;5334;48.928;12.704;2023-03-23T10:54:02;16.00;99.90
10572;DHT22;5334;48.928;12.704;2023-03-23T10:56:37;16.00;99.90
10572;DHT22;5334;48.928;12.704;2023-03-23T10:59:21;15.90;99.90
10572;DHT22;5334;48.928;12.704;2023-03-23T11:01:50;16.00;99.90
10572;DHT22;5334;48.928;12.704;2023-03-23T11:04:17;16.10;99.90
10572;DHT22;5334;48.928;12.704;2023-03-23T11:06:46;16.10;99.90
10572;DHT22;5334;48.928;12.704;2023-03-23T11:09:16;16.20;99.90
10572;DHT22;5334;48.928;12.704;2023-03-23T11:11:51;16.20;99.90
10572;DHT22;5334;48.928;12.704;2023-03-23T11:14:27;16.40;99.90
10572;DHT22;5334;48.928;12.704;2023-03-23T11:17:05;16.60;99.90
10572;DHT22;5334;48.928;12.704;2023-03-23T11:24:40;17.10;99.90
10572;DHT22;5334;48.928;12.704;2023-03-23T11:27:07;17.20;99.90
10572;DHT22;5334;48.928;12.704;2023-03-23T11:29:35;17.30;99.90
10572;DHT22;5334;48.928;12.704;2023-03-23T11:32:09;17.40;99.90
10572;DHT22;5334;48.928;12.704;2023-03-23T11:34:41;17.40;99.90
10572;DHT22;5334;48.928;12.704;2023-03-23T11:39:59;17.40;99.90
10572;DHT22;5334;48.928;12.704;2023-03-23T11:45:38;17.70;99.90
10572;DHT22;5334;48.928;12.704;2023-03-23T11:53:32;18.30;99.90
10572;DHT22;5334;48.928;12.704;2023-03-23T11:56:19;18.50;99.90
10572;DHT22;5334;48.928;12.704;2023-03-23T11:58:48;18.50;99.90
10572;DHT22;5334;48.928;12.704;2023-03-23T12:01:53;18.50;99.90
10572;DHT22;5334;48.928;12.704;2023-03-23T12:23:54;19.60;97.70
10572;DHT22;5334;48.928;12.704;2023-03-23T12:26:30;19.40;98.20
10572;DHT22;5334;48.928;12.704;2023-03-23T12:45:56;20.00;97.50
10572;DHT22;5334;48.928;12.704;2023-03-23T12:51:31;20.20;97.50
10572;DHT22;5334;48.928;12.704;2023-03-23T13:04:46;19.50;97.20
10572;DHT22;5334;48.928;12.704;2023-03-23T13:07:17;19.40;97.80
10572;DHT22;5334;48.928;12.704;2023-03-23T13:12:32;19.30;98.00
10572;DHT22;5334;48.928;12.704;2023-03-23T13:17:49;19.30;98.00
10572;DHT22;5334;48.928;12.704;2023-03-23T13:23:07;19.30;98.00
10572;DHT22;5334;48.928;12.704;2023-03-23T13:28:19;19.30;97.90
10572;DHT22;5334;48.928;12.704;2023-03-23T13:31:04;19.30;97.20
10572;DHT22;5334;48.928;12.704;2023-03-23T13:33:34;19.30;97.30
10572;DHT22;5334;48.928;12.704;2023-03-23T13:36:07;19.40;97.00
10572;DHT22;5334;48.928;12.704;2023-03-23T13:38:34;19.20;96.50
10572;DHT22;5334;48.928;12.704;2023-03-23T13:41:12;19.10;96.80
10572;DHT22;5334;48.928;12.704;2023-03-23T13:43:40;19.00;97.00
10572;DHT22;5334;48.928;12.704;2023-03-23T13:48:51;18.70;97.20
10572;DHT22;5334;48.928;12.704;2023-03-23T13:51:57;18.70;97.00
10572;DHT22;5334;48.928;12.704;2023-03-23T13:57:19;18.60;96.80
10572;DHT22;5334;48.928;12.704;2023-03-23T13:59:55;18.50;96.90
10572;DHT22;5334;48.928;12.704;2023-03-23T14:02:39;18.30;97.20
10572;DHT22;5334;48.928;12.704;2023-03-23T14:10:21;18.00;97.80
10572;DHT22;5334;48.928;12.704;2023-03-23T14:12:50;18.00;97.80
10572;DHT22;5334;48.928;12.704;2023-03-23T14:15:18;18.00;98.50
10572;DHT22;5334;48.928;12.704;2023-03-23T14:17:45;18.00;98.50
10572;DHT22;5334;48.928;12.704;2023-03-23T14:20:29;17.90;98.60
10572;DHT22;5334;48.928;12.704;2023-03-23T14:22:57;17.80;98.80
10572;DHT22;5334;48.928;12.704;2023-03-23T14:25:27;17.80;98.90
10572;DHT22;5334;48.928;12.704;2023-03-23T14:27:54;17.80;98.80
10572;DHT22;5334;48.928;12.704;2023-03-23T14:30:22;17.70;98.90
10572;DHT22;5334;48.928;12.704;2023-03-23T14:32:48;17.70;98.80
10572;DHT22;5334;48.928;12.704;2023-03-23T14:35:35;17.70;99.00
10572;DHT22;5334;48.928;12.704;2023-03-23T14:38:01;17.70;99.00
10572;DHT22;5334;48.928;12.704;2023-03-23T14:40:28;17.70;99.30
10572;DHT22;5334;48.928;12.704;2023-03-23T14:42:55;17.60;99.30
10572;DHT22;5334;48.928;12.704;2023-03-23T14:45:23;17.60;98.90
10572;DHT22;5334;48.928;12.704;2023-03-23T14:48:01;17.50;99.10
10572;DHT22;5334;48.928;12.704;2023-03-23T14:50:28;17.40;99.00
10572;DHT22;5334;48.928;12.704;2023-03-23T14:53:43;17.40;99.50
10572;DHT22;5334;48.928;12.704;2023-03-23T14:56:10;17.30;99.60
10572;DHT22;5334;48.928;12.704;2023-03-23T14:58:36;17.20;99.40
10572;DHT22;5334;48.928;12.704;2023-03-23T15:03:33;17.20;99.60
10572;DHT22;5334;48.928;12.704;2023-03-23T15:06:04;17.30;99.60
10572;DHT22;5334;48.928;12.704;2023-03-23T15:08:33;17.40;99.60
10572;DHT22;5334;48.928;12.704;2023-03-23T15:11:12;17.40;99.80
10572;DHT22;5334;48.928;12.704;2023-03-23T15:13:52;17.40;99.60
10572;DHT22;5334;48.928;12.704;2023-03-23T15:16:27;17.40;99.90
10572;DHT22;5334;48.928;12.704;2023-03-23T15:19:04;17.30;99.60
10572;DHT22;5334;48.928;12.704;2023-03-23T15:21:35;17.30;99.70
10572;DHT22;5334;48.928;12.704;2023-03-23T15:29:52;17.10;99.90
10572;DHT22;5334;48.928;12.704;2023-03-23T15:32:23;17.10;99.90
10572;DHT22;5334;48.928;12.704;2023-03-23T15:34:49;17.10;99.90
10572;DHT22;5334;48.928;12.704;2023-03-23T15:37:29;17.20;99.90
10572;DHT22;5334;48.928;12.704;2023-03-23T15:39:57;17.20;99.90
10572;DHT22;5334;48.928;12.704;2023-03-23T15:45:24;17.20;99.90
10572;DHT22;5334;48.928;12.704;2023-03-23T15:47:50;17.20;99.90
10572;DHT22;5334;48.928;12.704;2023-03-23T15:50:19;17.20;99.90
10572;DHT22;5334;48.928;12.704;2023-03-23T15:52:46;17.20;99.90
10572;DHT22;5334;48.928;12.704;2023-03-23T15:55:35;17.20;99.90
10572;DHT22;5334;48.928;12.704;2023-03-23T15:58:04;17.20;99.90
10572;DHT22;5334;48.928;12.704;2023-03-23T16:00:33;17.20;99.90
10572;DHT22;5334;48.928;12.704;2023-03-23T16:03:05;17.20;99.90
10572;DHT22;5334;48.928;12.704;2023-03-23T16:05:32;17.20;99.90
10572;DHT22;5334;48.928;12.704;2023-03-23T16:07:59;17.20;99.90
10572;DHT22;5334;48.928;12.704;2023-03-23T16:10:27;17.20;99.90
10572;DHT22;5334;48.928;12.704;2023-03-23T16:12:53;17.20;99.90
10572;DHT22;5334;48.928;12.704;2023-03-23T16:15:19;17.20;99.90
10572;DHT22;5334;48.928;12.704;2023-03-23T16:17:45;17.20;99.90
10572;DHT22;5334;48.928;12.704;2023-03-23T16:20:19;17.20;99.90
10572;DHT22;5334;48.928;12.704;2023-03-23T16:22:45;17.20;99.90
10572;DHT22;5334;48.928;12.704;2023-03-23T16:25:12;17.10;99.90
10572;DHT22;5334;48.928;12.704;2023-03-23T16:27:39;17.20;99.90
10572;DHT22;5334;48.928;12.704;2023-03-23T16:30:25;17.20;99.90
10572;DHT22;5334;48.928;12.704;2023-03-23T16:32:51;17.20;99.90
10572;DHT22;5334;48.928;12.704;2023-03-23T16:35:18;17.10;99.90
10572;DHT22;5334;48.928;12.704;2023-03-23T16:37:49;17.00;99.90
10572;DHT22;5334;48.928;12.704;2023-03-23T16:40:17;17.00;99.90
10572;DHT22;5334;48.928;12.704;2023-03-23T16:42:43;16.90;99.90
10572;DHT22;5334;48.928;12.704;2023-03-23T16:45:10;16.90;99.90
10572;DHT22;5334;48.928;12.704;2023-03-23T16:47:37;16.80;99.90
10572;DHT22;5334;48.928;12.704;2023-03-23T16:50:04;16.80;99.90
10572;DHT22;5334;48.928;12.704;2023-03-23T16:52:31;16.80;99.90
10572;DHT22;5334;48.928;12.704;2023-03-23T16:54:57;16.80;99.90
10572;DHT22;5334;48.928;12.704;2023-03-23T16:57:23;16.70;99.90
10572;DHT22;5334;48.928;12.704;2023-03-23T16:59:49;16.70;99.90
10572;DHT22;5334;48.928;12.704;2023-03-23T17:02:15;16.60;99.90
10572;DHT22;5334;48.928;12.704;2023-03-23T17:04:44;16.60;99.90
10572;DHT22;5334;48.928;12.704;2023-03-23T17:07:11;16.70;99.90
10572;DHT22;5334;48.928;12.704;2023-03-23T17:09:38;16.50;99.90
10572;DHT22;5334;48.928;12.704;2023-03-23T17:12:04;16.50;99.90
10572;DHT22;5334;48.928;12.704;2023-03-23T17:14:30;16.50;99.90
10572;DHT22;5334;48.928;12.704;2023-03-23T17:16:57;16.50;99.90
10572;DHT22;5334;48.928;12.704;2023-03-23T17:19:23;16.40;99.90
10572;DHT22;5334;48.928;12.704;2023-03-23T17:21:48;16.40;99.90
10572;DHT22;5334;48.928;12.704;2023-03-23T17:24:14;16.30;99.90
10572;DHT22;5334;48.928;12.704;2023-03-23T17:26:40;16.30;99.90
10572;DHT22;5334;48.928;12.704;2023-03-23T17:29:06;16.30;99.90
10572;DHT22;5334;48.928;12.704;2023-03-23T17:31:31;16.20;99.90
10572;DHT22;5334;48.928;12.704;2023-03-23T17:33:57;16.20;99.90
10572;DHT22;5334;48.928;12.704;2023-03-23T17:36:23;16.20;99.90
10572;DHT22;5334;48.928;12.704;2023-03-23T17:38:49;16.20;99.90
10572;DHT22;5334;48.928;12.704;2023-03-23T17:41:15;16.10;99.90
10572;DHT22;5334;48.928;12.704;2023-03-23T17:43:41;16.10;99.90
10572;DHT22;5334;48.928;12.704;2023-03-23T17:46:08;16.10;99.90
10572;DHT22;5334;48.928;12.704;2023-03-23T17:48:34;16.00;99.90
10572;DHT22;5334;48.928;12.704;2023-03-23T17:51:00;16.00;99.90
10572;DHT22;5334;48.928;12.704;2023-03-23T17:53:28;15.90;99.90
10572;DHT22;5334;48.928;12.704;2023-03-23T17:55:55;15.80;99.90
10572;DHT22;5334;48.928;12.704;2023-03-23T17:58:22;15.80;99.90
10572;DHT22;5334;48.928;12.704;2023-03-23T18:00:49;15.80;99.90
10572;DHT22;5334;48.928;12.704;2023-03-23T18:03:15;15.70;99.90
10572;DHT22;5334;48.928;12.704;2023-03-23T18:05:40;15.60;99.90
10572;DHT22;5334;48.928;12.704;2023-03-23T18:08:06;15.50;99.90
10572;DHT22;5334;48.928;12.704;2023-03-23T18:10:32;15.50;99.90
10572;DHT22;5334;48.928;12.704;2023-03-23T18:13:02;15.40;99.90
10572;DHT22;5334;48.928;12.704;2023-03-23T18:15:29;15.30;99.90
10572;DHT22;5334;48.928;12.704;2023-03-23T18:17:55;15.20;99.90
10572;DHT22;5334;48.928;12.704;2023-03-23T18:20:21;15.10;99.90
10572;DHT22;5334;48.928;12.704;2023-03-23T18:22:47;15.00;99.90
10572;DHT22;5334;48.928;12.704;2023-03-23T18:25:14;14.90;99.90
10572;DHT22;5334;48.928;12.704;2023-03-23T18:27:40;14.90;99.90
10572;DHT22;5334;48.928;12.704;2023-03-23T18:30:07;14.80;99.90